createdAt,value
2022-12-17T00:02:08.094Z,108.00
2022-12-17T00:04:59.290Z,108.10
2022-12-17T00:07:48.419Z,108.30
2022-12-17T00:10:36.798Z,105.50
2022-12-17T00:13:24.864Z,101.80
2022-12-17T00:16:14.902Z,104.10
2022-12-17T00:19:03.411Z,99.20
2022-12-17T00:21:53.837Z,98.70
2022-12-17T00:24:45.233Z,102.60
2022-12-17T00:27:33.483Z,104.70
2022-12-17T00:30:21.979Z,104.20
2022-12-17T00:33:10.372Z,104.20
2022-12-17T00:35:58.858Z,100.00
2022-12-17T00:38:48.693Z,101.10
2022-12-17T00:41:36.778Z,98.50
2022-12-17T00:44:24.763Z,101.40
2022-12-17T00:47:15.304Z,97.10
2022-12-17T00:50:04.466Z,95.40
2022-12-17T00:52:52.662Z,94.70
2022-12-17T00:55:40.409Z,93.90
2022-12-17T00:58:29.494Z,94.90
2022-12-17T01:01:19.367Z,94.70
2022-12-17T01:04:07.255Z,93.70
2022-12-17T01:06:55.665Z,96.30
2022-12-17T01:09:47.954Z,92.80
2022-12-17T01:12:38.607Z,96.00
2022-12-17T01:15:27.153Z,95.30
2022-12-17T01:18:15.768Z,92.60
2022-12-17T01:21:04.362Z,96.80
2022-12-17T01:23:52.805Z,89.30
2022-12-17T01:26:40.822Z,89.40
2022-12-17T01:29:31.407Z,91.70
2022-12-17T01:32:21.590Z,94.60
2022-12-17T01:35:09.829Z,94.60
2022-12-17T01:37:58.523Z,91.40
2022-12-17T01:40:56.771Z,95.50
2022-12-17T01:43:59.213Z,89.80
2022-12-17T01:47:11.344Z,92.40
2022-12-17T01:50:06.659Z,90.00
2022-12-17T01:52:59.807Z,90.30
2022-12-17T01:55:48.456Z,94.90
2022-12-17T01:58:59.386Z,100.30
2022-12-17T02:01:53.813Z,90.50
2022-12-17T02:04:43.360Z,98.60
2022-12-17T02:08:07.468Z,100.70
2022-12-17T02:11:30.728Z,96.20
2022-12-17T02:14:46.487Z,96.90
2022-12-17T02:17:43.509Z,88.60
2022-12-17T02:21:09.345Z,94.70
2022-12-17T02:24:42.757Z,94.30
2022-12-17T02:27:36.381Z,88.60
2022-12-17T02:30:29.363Z,91.60
2022-12-17T02:33:32.472Z,87.30
2022-12-17T02:36:27.162Z,85.90
2022-12-17T02:39:17.225Z,86.50
2022-12-17T02:42:12.952Z,87.20
2022-12-17T02:45:05.160Z,87.20
2022-12-17T02:47:53.968Z,86.80
2022-12-17T02:50:42.705Z,91.70
2022-12-17T02:53:32.243Z,94.50
2022-12-17T02:56:20.344Z,96.80
2022-12-17T02:59:10.732Z,96.00
2022-12-17T03:02:02.948Z,95.30
2022-12-17T03:04:54.312Z,93.20
2022-12-17T03:07:42.467Z,93.30
2022-12-17T03:10:30.349Z,89.60
2022-12-17T03:13:18.400Z,92.80
2022-12-17T03:16:06.514Z,89.80
2022-12-17T03:18:54.464Z,91.70
2022-12-17T03:21:50.049Z,87.30
2022-12-17T03:24:37.741Z,87.20
2022-12-17T03:27:27.904Z,87.60
2022-12-17T03:30:15.899Z,85.30
2022-12-17T03:33:03.798Z,87.50
2022-12-17T03:35:54.089Z,85.70
2022-12-17T03:38:44.996Z,83.10
2022-12-17T03:41:35.892Z,84.20
2022-12-17T03:44:23.702Z,83.40
2022-12-17T03:47:12.034Z,86.20
2022-12-17T03:49:59.967Z,84.30
2022-12-17T03:52:52.743Z,82.80
2022-12-17T03:55:43.959Z,81.60
2022-12-17T03:58:32.202Z,81.00
2022-12-17T04:01:23.681Z,82.60
2022-12-17T04:04:14.575Z,80.30
2022-12-17T04:07:02.889Z,87.40
2022-12-17T04:09:50.727Z,85.50
2022-12-17T04:12:39.044Z,90.60
2022-12-17T04:15:27.958Z,90.00
2022-12-17T04:18:16.270Z,88.80
2022-12-17T04:21:07.238Z,81.00
2022-12-17T04:23:55.910Z,80.80
2022-12-17T04:26:43.663Z,84.00
2022-12-17T04:29:31.255Z,86.60
2022-12-17T04:32:18.930Z,84.30
2022-12-17T04:35:06.357Z,79.30
2022-12-17T04:37:56.660Z,82.00
2022-12-17T04:40:44.547Z,83.40
2022-12-17T04:43:32.662Z,78.20
2022-12-17T04:46:37.293Z,86.20
2022-12-17T04:49:25.552Z,80.40
2022-12-17T04:52:13.604Z,81.80
2022-12-17T04:55:01.790Z,80.10
2022-12-17T04:57:50.026Z,80.60
2022-12-17T05:00:38.589Z,83.80
2022-12-17T05:03:31.693Z,73.70
2022-12-17T05:06:20.765Z,75.50
2022-12-17T05:09:08.504Z,75.40
2022-12-17T05:11:56.493Z,74.60
2022-12-17T05:14:44.787Z,71.50
2022-12-17T05:17:32.814Z,74.40
2022-12-17T05:20:22.108Z,74.40
2022-12-17T05:23:09.627Z,76.50
2022-12-17T05:25:57.054Z,75.90
2022-12-17T05:28:44.717Z,73.10
2022-12-17T05:31:32.443Z,76.80
2022-12-17T05:34:20.042Z,76.10
2022-12-17T05:37:07.774Z,81.00
2022-12-17T05:39:55.258Z,81.20
2022-12-17T05:42:42.870Z,73.30
2022-12-17T05:45:30.647Z,75.70
2022-12-17T05:48:18.730Z,74.40
2022-12-17T05:51:10.130Z,74.30
2022-12-17T05:53:58.300Z,73.30
2022-12-17T05:56:46.165Z,71.00
2022-12-17T05:59:34.099Z,70.30
2022-12-17T06:02:22.422Z,71.70
2022-12-17T06:05:12.796Z,73.10
2022-12-17T06:08:02.351Z,74.30
2022-12-17T06:10:50.613Z,72.40
2022-12-17T06:13:38.813Z,68.00
2022-12-17T06:16:29.478Z,70.60
2022-12-17T06:19:34.598Z,69.50
2022-12-17T06:22:22.192Z,71.20
2022-12-17T06:25:10.343Z,74.70
2022-12-17T06:27:58.145Z,75.60
2022-12-17T06:30:47.331Z,74.30
2022-12-17T06:33:39.151Z,73.00
2022-12-17T06:36:27.749Z,74.90
2022-12-17T06:39:16.018Z,70.90
2022-12-17T06:42:04.610Z,69.90
2022-12-17T06:44:54.202Z,68.60
2022-12-17T06:47:42.159Z,73.00
2022-12-17T06:50:36.776Z,71.40
2022-12-17T06:53:26.728Z,69.30
2022-12-17T06:56:18.984Z,70.30
2022-12-17T06:59:07.379Z,70.70
2022-12-17T07:01:55.605Z,66.90
2022-12-17T07:04:43.857Z,71.40
2022-12-17T07:07:31.748Z,64.80
2022-12-17T07:10:19.804Z,66.30
2022-12-17T07:13:07.360Z,61.30
2022-12-17T07:15:55.353Z,64.90
2022-12-17T07:18:43.524Z,62.00
2022-12-17T07:21:31.241Z,59.20
2022-12-17T07:24:22.539Z,63.60
2022-12-17T07:27:10.523Z,62.40
2022-12-17T07:29:58.314Z,63.20
2022-12-17T07:32:45.984Z,61.80
2022-12-17T07:35:34.022Z,64.40
2022-12-17T07:38:23.787Z,68.30
2022-12-17T07:41:11.872Z,60.90
2022-12-17T07:44:02.015Z,65.70
2022-12-17T07:46:50.611Z,65.80
2022-12-17T07:49:37.872Z,69.20
2022-12-17T07:52:25.509Z,68.30
2022-12-17T07:55:16.786Z,66.70
2022-12-17T07:58:05.585Z,63.00
2022-12-17T08:00:53.177Z,63.50
2022-12-17T08:03:41.650Z,64.40
2022-12-17T08:06:33.812Z,62.70
2022-12-17T08:09:21.974Z,65.40
2022-12-17T08:12:10.065Z,61.10
2022-12-17T08:14:57.576Z,61.30
2022-12-17T08:17:55.973Z,61.90
2022-12-17T08:20:43.975Z,61.60
2022-12-17T08:23:31.878Z,65.30
2022-12-17T08:26:19.995Z,70.90
2022-12-17T08:29:09.907Z,66.30
2022-12-17T08:31:57.919Z,61.70
2022-12-17T08:34:46.793Z,62.60
2022-12-17T08:37:34.255Z,60.20
2022-12-17T08:40:22.094Z,58.80
2022-12-17T08:43:16.555Z,60.80
2022-12-17T08:46:09.623Z,62.50
2022-12-17T08:49:08.326Z,73.50
2022-12-17T08:51:55.744Z,67.50
2022-12-17T08:54:43.345Z,61.90
2022-12-17T08:57:32.150Z,65.60
2022-12-17T09:00:20.527Z,59.90
2022-12-17T09:03:08.393Z,60.70
2022-12-17T09:05:56.729Z,52.60
2022-12-17T09:08:47.310Z,59.20
2022-12-17T09:11:38.282Z,71.90
2022-12-17T09:14:29.425Z,64.10
2022-12-17T09:17:17.539Z,57.70
2022-12-17T09:20:12.990Z,54.50
2022-12-17T09:23:01.259Z,55.60
2022-12-17T09:25:53.739Z,64.20
2022-12-17T09:28:45.930Z,82.60
2022-12-17T09:31:37.251Z,63.20
2022-12-17T09:34:25.401Z,51.00
2022-12-17T09:37:13.077Z,58.70
2022-12-17T09:40:01.074Z,59.20
2022-12-17T09:43:17.067Z,53.70
2022-12-17T09:46:28.824Z,54.60
2022-12-17T09:49:37.558Z,51.90
2022-12-17T09:52:50.102Z,51.40
2022-12-17T09:56:05.853Z,51.70
2022-12-17T09:58:59.400Z,48.60
2022-12-17T10:01:56.142Z,49.80
2022-12-17T10:05:04.543Z,50.20
2022-12-17T10:07:57.407Z,48.40
2022-12-17T10:10:51.380Z,51.50
2022-12-17T10:13:42.135Z,51.10
2022-12-17T10:17:08.443Z,49.00
2022-12-17T10:20:01.425Z,47.70
2022-12-17T10:23:00.626Z,50.40
2022-12-17T10:25:48.888Z,49.20
2022-12-17T10:28:44.416Z,47.20
2022-12-17T10:31:41.067Z,47.80
2022-12-17T10:34:39.578Z,45.20
2022-12-17T10:37:38.718Z,48.00
2022-12-17T10:40:44.738Z,47.70
2022-12-17T10:43:51.886Z,45.50
2022-12-17T10:46:47.046Z,44.50
2022-12-17T10:49:40.692Z,45.60
2022-12-17T10:52:46.467Z,44.50
2022-12-17T10:55:44.184Z,41.40
2022-12-17T10:58:40.259Z,43.60
2022-12-17T11:01:39.647Z,45.20
2022-12-17T11:05:12.291Z,43.40
2022-12-17T11:08:02.795Z,41.10
2022-12-17T11:10:59.404Z,43.70
2022-12-17T11:13:52.508Z,44.70
2022-12-17T11:17:12.747Z,42.90
2022-12-17T11:20:36.981Z,44.70
2022-12-17T11:23:28.535Z,45.80
2022-12-17T11:26:33.038Z,44.80
2022-12-17T11:29:20.791Z,42.80
2022-12-17T11:32:29.135Z,42.10
2022-12-17T11:35:42.284Z,43.00
2022-12-17T11:38:53.827Z,43.40
2022-12-17T11:42:13.085Z,45.70
2022-12-17T11:45:20.785Z,46.10
2022-12-17T11:48:31.198Z,43.60
2022-12-17T11:51:36.979Z,42.20
2022-12-17T11:54:38.746Z,44.40
2022-12-17T11:58:08.049Z,44.90
2022-12-17T12:01:39.696Z,44.00
2022-12-17T12:04:43.639Z,43.70
2022-12-17T12:07:47.215Z,45.90
2022-12-17T12:10:52.510Z,47.20
2022-12-17T12:14:12.352Z,47.80
2022-12-17T12:17:40.897Z,50.30
2022-12-17T12:21:04.763Z,48.50
2022-12-17T12:24:11.014Z,44.80
2022-12-17T12:27:25.365Z,42.30
2022-12-17T12:30:42.882Z,41.20
2022-12-17T12:33:42.492Z,41.80
2022-12-17T12:36:35.835Z,41.90
2022-12-17T12:39:29.251Z,40.00
2022-12-17T12:42:45.170Z,42.40
2022-12-17T12:46:11.789Z,44.00
2022-12-17T12:49:44.042Z,41.00
2022-12-17T12:52:39.840Z,40.80
2022-12-17T12:55:30.695Z,42.40
2022-12-17T12:58:19.499Z,41.90
2022-12-17T13:01:07.047Z,40.00
2022-12-17T13:04:03.660Z,41.80
2022-12-17T13:06:49.319Z,41.40
2022-12-17T13:09:19.208Z,38.80
2022-12-17T13:12:02.070Z,40.60
2022-12-17T13:14:47.657Z,39.90
2022-12-17T13:17:17.051Z,38.90
2022-12-17T13:20:02.177Z,41.30
2022-12-17T13:22:33.963Z,40.90
2022-12-17T13:25:23.991Z,42.20
2022-12-17T13:27:54.651Z,38.40
2022-12-17T13:30:39.205Z,40.10
2022-12-17T13:33:27.102Z,40.30
2022-12-17T13:36:52.614Z,41.30
2022-12-17T13:39:28.923Z,42.60
2022-12-17T13:42:00.659Z,45.60
2022-12-17T13:45:02.940Z,45.70
2022-12-17T13:47:38.916Z,40.70
2022-12-17T13:50:35.499Z,40.60
2022-12-17T13:53:15.545Z,39.10
2022-12-17T13:55:53.278Z,38.40
2022-12-17T13:58:35.975Z,38.90
2022-12-17T14:01:09.020Z,39.80
2022-12-17T14:04:05.083Z,42.30
2022-12-17T14:06:38.395Z,44.00
2022-12-17T14:09:18.436Z,41.40
2022-12-17T14:12:08.969Z,44.10
2022-12-17T14:14:41.361Z,47.60
2022-12-17T14:17:23.997Z,48.30
2022-12-17T14:20:07.677Z,53.30
2022-12-17T14:22:49.441Z,56.10
2022-12-17T14:25:24.640Z,62.60
2022-12-17T14:27:57.532Z,67.80
2022-12-17T14:31:02.686Z,68.20
2022-12-17T14:33:37.367Z,70.40
2022-12-17T14:36:16.754Z,71.80
2022-12-17T14:39:03.488Z,72.80
2022-12-17T14:42:00.086Z,72.70
2022-12-17T14:44:31.595Z,75.70
2022-12-17T14:47:40.794Z,77.90
2022-12-17T14:50:26.108Z,74.20
2022-12-17T14:53:23.566Z,84.30
2022-12-17T14:56:02.227Z,80.70
2022-12-17T14:58:31.752Z,80.40
2022-12-17T15:01:09.363Z,89.80
2022-12-17T15:03:47.055Z,87.70
2022-12-17T15:06:20.671Z,88.30
2022-12-17T15:08:53.374Z,89.60
2022-12-17T15:11:23.967Z,88.20
2022-12-17T15:13:56.673Z,88.10
2022-12-17T15:16:27.231Z,82.40
2022-12-17T15:18:56.767Z,91.40
2022-12-17T15:21:27.176Z,86.90
2022-12-17T15:23:56.912Z,80.40
2022-12-17T15:26:27.014Z,80.70
2022-12-17T15:28:57.284Z,79.70
2022-12-17T15:31:31.938Z,80.60
2022-12-17T15:34:05.131Z,84.90
2022-12-17T15:36:34.931Z,91.20
2022-12-17T15:39:06.461Z,86.20
2022-12-17T15:41:54.719Z,90.90
2022-12-17T15:44:28.163Z,90.80
2022-12-17T15:46:57.583Z,75.40
2022-12-17T15:49:30.153Z,61.00
2022-12-17T15:51:59.592Z,55.30
2022-12-17T15:54:29.585Z,56.60
2022-12-17T15:57:19.024Z,59.70
2022-12-17T16:00:09.257Z,61.70
2022-12-17T16:02:47.288Z,63.60
2022-12-17T16:05:18.209Z,63.90
2022-12-17T16:07:52.345Z,63.20
2022-12-17T16:10:22.024Z,67.70
2022-12-17T16:12:57.321Z,64.20
2022-12-17T16:15:31.988Z,61.70
2022-12-17T16:18:02.000Z,65.60
2022-12-17T16:20:32.126Z,63.30
2022-12-17T16:23:01.858Z,61.40
2022-12-17T16:25:33.902Z,62.40
2022-12-17T16:28:03.536Z,60.80
2022-12-17T16:30:33.190Z,60.70
2022-12-17T16:33:02.790Z,63.80
2022-12-17T16:35:32.418Z,63.30
2022-12-17T16:38:02.919Z,65.60
2022-12-17T16:40:32.608Z,63.70
2022-12-17T16:43:02.393Z,64.20
2022-12-17T16:45:32.447Z,62.60
2022-12-17T16:48:14.852Z,63.30
2022-12-17T16:50:52.074Z,63.50
2022-12-17T16:53:21.902Z,67.50
2022-12-17T16:55:53.184Z,70.40
2022-12-17T16:58:38.489Z,75.20
2022-12-17T17:01:36.021Z,72.60
2022-12-17T17:04:09.131Z,78.40
2022-12-17T17:06:57.119Z,69.40
2022-12-17T17:09:26.640Z,71.80
2022-12-17T17:11:58.718Z,67.10
2022-12-17T17:14:28.035Z,67.30
2022-12-17T17:16:57.290Z,65.90
2022-12-17T17:19:26.652Z,68.60
2022-12-17T17:21:59.306Z,70.10
2022-12-17T17:24:31.514Z,66.30
2022-12-17T17:27:09.791Z,66.90
2022-12-17T17:29:44.126Z,65.40
2022-12-17T17:32:14.237Z,67.00
2022-12-17T17:34:47.118Z,64.10
2022-12-17T17:37:19.062Z,69.10
2022-12-17T17:39:48.389Z,68.20
2022-12-17T17:42:18.251Z,69.40
2022-12-17T17:44:49.372Z,68.50
2022-12-17T17:47:23.192Z,62.50
2022-12-17T17:49:58.521Z,62.50
2022-12-17T17:52:44.276Z,53.60
2022-12-17T17:55:18.659Z,50.00
2022-12-17T18:00:34.476Z,47.60
2022-12-17T18:03:13.504Z,46.40
2022-12-17T18:05:49.704Z,43.30
2022-12-17T18:08:23.006Z,43.60
2022-12-17T18:11:39.101Z,43.20
2022-12-17T18:14:23.692Z,40.50
2022-12-17T18:17:02.398Z,40.70
2022-12-17T18:19:36.559Z,40.90
2022-12-17T18:22:12.866Z,39.90
2022-12-17T18:24:47.167Z,42.60
2022-12-17T18:27:16.826Z,44.30
2022-12-17T18:29:49.011Z,42.80
2022-12-17T18:32:27.283Z,42.50
2022-12-17T18:34:57.157Z,42.20
2022-12-17T18:37:30.191Z,40.50
2022-12-17T18:40:00.110Z,39.50
2022-12-17T18:42:59.530Z,39.00
2022-12-17T18:45:31.404Z,38.80
2022-12-17T18:48:08.546Z,38.10
2022-12-17T18:50:39.278Z,38.40
2022-12-17T18:53:10.199Z,38.20
2022-12-17T18:55:44.553Z,38.10
2022-12-17T18:58:25.038Z,39.80
2022-12-17T19:00:56.779Z,36.40
2022-12-17T19:03:33.543Z,41.30
2022-12-17T19:06:14.608Z,41.40
2022-12-17T19:08:49.287Z,41.80
2022-12-17T19:11:40.458Z,43.00
2022-12-17T19:17:10.574Z,42.90
2022-12-17T19:19:42.979Z,46.90
2022-12-17T19:22:25.651Z,45.80
2022-12-17T19:25:09.389Z,44.10
2022-12-17T19:27:47.053Z,47.70
2022-12-17T19:30:17.046Z,47.60
2022-12-17T19:32:48.362Z,45.10
2022-12-17T19:35:20.420Z,46.30
2022-12-17T19:37:58.437Z,43.40
2022-12-17T19:40:29.448Z,43.30
2022-12-17T19:42:59.928Z,44.70
2022-12-17T19:45:37.008Z,47.20
2022-12-17T19:48:18.793Z,45.20
2022-12-17T19:50:58.740Z,47.00
2022-12-17T19:53:32.780Z,48.80
2022-12-17T19:56:14.503Z,45.90
2022-12-17T19:58:53.502Z,42.80
2022-12-17T20:01:34.767Z,44.40
2022-12-17T20:04:12.036Z,47.40
2022-12-17T20:06:48.177Z,45.00
2022-12-17T20:09:19.983Z,49.60
2022-12-17T20:11:49.759Z,46.10
2022-12-17T20:14:26.596Z,48.90
2022-12-17T20:17:00.464Z,48.80
2022-12-17T20:19:43.008Z,47.70
2022-12-17T20:22:23.093Z,48.40
2022-12-17T20:24:55.200Z,46.80
2022-12-17T20:27:25.016Z,49.00
2022-12-17T20:29:54.780Z,46.90
2022-12-17T20:32:29.542Z,46.30
2022-12-17T20:35:01.179Z,48.20
2022-12-17T20:37:34.293Z,46.40
2022-12-17T20:40:04.503Z,49.50
2022-12-17T20:42:34.349Z,47.30
2022-12-17T20:45:04.607Z,48.90
2022-12-17T20:47:35.785Z,47.30
2022-12-17T20:50:06.067Z,47.40
2022-12-17T20:52:35.690Z,44.50
2022-12-17T20:55:06.225Z,42.90
2022-12-17T20:57:43.259Z,42.20
2022-12-17T21:00:39.554Z,38.40
2022-12-17T21:03:43.784Z,40.10
2022-12-17T21:06:45.935Z,43.90
2022-12-17T21:09:20.473Z,42.90
2022-12-17T21:11:55.479Z,40.70
2022-12-17T21:14:35.145Z,41.50
2022-12-17T21:17:07.668Z,41.20
2022-12-17T21:19:37.535Z,41.00
2022-12-17T21:22:09.941Z,42.60
2022-12-17T21:24:42.774Z,41.90
2022-12-17T21:27:19.811Z,40.80
2022-12-17T21:29:53.419Z,41.90
2022-12-17T21:32:33.372Z,41.70
2022-12-17T21:35:15.197Z,40.90
2022-12-17T21:37:51.891Z,41.60
2022-12-17T21:40:21.591Z,43.00
2022-12-17T21:43:31.883Z,40.90
2022-12-17T21:46:17.592Z,42.70
2022-12-17T21:48:59.160Z,42.20
2022-12-17T21:51:46.274Z,42.90
2022-12-17T21:54:19.929Z,44.00
2022-12-17T21:56:50.067Z,43.70
2022-12-17T21:59:22.871Z,42.30
2022-12-17T22:02:11.248Z,38.80
2022-12-17T22:04:46.833Z,44.70
2022-12-17T22:07:20.217Z,40.80
2022-12-17T22:10:25.068Z,40.40
2022-12-17T22:13:21.656Z,39.10
2022-12-17T22:15:57.518Z,38.30
2022-12-17T22:18:27.691Z,39.00
2022-12-17T22:21:03.023Z,40.30
2022-12-17T22:23:49.485Z,40.80
2022-12-17T22:26:28.857Z,42.10
2022-12-17T22:29:07.494Z,41.30
2022-12-17T22:35:23.162Z,39.80
2022-12-17T22:40:33.326Z,40.10
2022-12-17T22:44:35.211Z,37.70
2022-12-17T22:44:42.468Z,37.00
2022-12-17T22:46:38.726Z,37.80
2022-12-17T22:49:15.097Z,39.20
2022-12-17T22:55:11.111Z,38.70
2022-12-17T22:57:45.115Z,38.60
2022-12-17T23:00:32.048Z,41.10
2022-12-17T23:03:03.084Z,40.90
2022-12-17T23:05:35.951Z,40.00
2022-12-17T23:08:15.855Z,39.00
2022-12-17T23:11:01.403Z,39.40
2022-12-17T23:13:48.374Z,42.80
2022-12-17T23:16:25.053Z,42.50
2022-12-17T23:19:05.491Z,41.90
2022-12-17T23:21:35.484Z,41.10
2022-12-17T23:24:10.071Z,42.30
2022-12-17T23:26:41.560Z,41.60
2022-12-17T23:29:20.626Z,40.40
2022-12-17T23:32:04.238Z,39.70
2022-12-17T23:34:33.804Z,40.10
2022-12-17T23:37:10.292Z,40.00
2022-12-17T23:39:41.542Z,40.00
2022-12-17T23:42:13.745Z,39.70
2022-12-17T23:44:43.436Z,38.30
2022-12-17T23:47:15.394Z,39.80
2022-12-17T23:49:56.580Z,37.70
2022-12-17T23:52:27.752Z,38.00
2022-12-17T23:55:01.085Z,37.70
2022-12-17T23:57:39.018Z,36.60
